sensor_id;sensor_type;location;lat;lon;timestamp;P1;durP1;ratioP1;P2;durP2;ratioP2
39948;SDS011;29070;48.102;-1.652;2023-04-02T00:05:59;11.02;;;2.30;;
39948;SDS011;29070;48.102;-1.652;2023-04-02T00:11:00;9.77;;;2.15;;
39948;SDS011;29070;48.102;-1.652;2023-04-02T00:16:02;7.07;;;2.20;;
39948;SDS011;29070;48.102;-1.652;2023-04-02T00:21:13;6.75;;;2.10;;
39948;SDS011;29070;48.102;-1.652;2023-04-02T00:26:21;13.37;;;2.60;;
39948;SDS011;29070;48.102;-1.652;2023-04-02T00:31:37;7.75;;;2.30;;
39948;SDS011;29070;48.102;-1.652;2023-04-02T00:36:41;7.50;;;2.33;;
39948;SDS011;29070;48.102;-1.652;2023-04-02T00:41:43;14.07;;;2.90;;
39948;SDS011;29070;48.102;-1.652;2023-04-02T00:46:46;12.98;;;2.83;;
39948;SDS011;29070;48.102;-1.652;2023-04-02T00:51:50;11.55;;;3.25;;
39948;SDS011;29070;48.102;-1.652;2023-04-02T00:56:54;11.67;;;2.80;;
39948;SDS011;29070;48.102;-1.652;2023-04-02T01:01:59;10.70;;;3.03;;
39948;SDS011;29070;48.102;-1.652;2023-04-02T01:08:09;9.30;;;2.78;;
39948;SDS011;29070;48.102;-1.652;2023-04-02T01:23:52;8.77;;;2.42;;
39948;SDS011;29070;48.102;-1.652;2023-04-02T01:29:02;9.25;;;3.00;;
39948;SDS011;29070;48.102;-1.652;2023-04-02T01:34:07;10.77;;;3.22;;
39948;SDS011;29070;48.102;-1.652;2023-04-02T01:44:36;12.15;;;3.22;;
39948;SDS011;29070;48.102;-1.652;2023-04-02T01:49:41;11.68;;;3.10;;
39948;SDS011;29070;48.102;-1.652;2023-04-02T01:54:43;15.40;;;2.90;;
39948;SDS011;29070;48.102;-1.652;2023-04-02T01:59:46;14.45;;;2.58;;
39948;SDS011;29070;48.102;-1.652;2023-04-02T02:04:46;13.00;;;3.42;;
39948;SDS011;29070;48.102;-1.652;2023-04-02T02:09:47;11.30;;;3.25;;
39948;SDS011;29070;48.102;-1.652;2023-04-02T02:14:49;8.75;;;2.45;;
39948;SDS011;29070;48.102;-1.652;2023-04-02T02:19:51;9.38;;;3.28;;
39948;SDS011;29070;48.102;-1.652;2023-04-02T02:24:56;8.77;;;3.33;;
39948;SDS011;29070;48.102;-1.652;2023-04-02T02:35:27;11.80;;;2.67;;
39948;SDS011;29070;48.102;-1.652;2023-04-02T02:40:35;14.65;;;3.30;;
39948;SDS011;29070;48.102;-1.652;2023-04-02T02:45:42;12.98;;;2.58;;
39948;SDS011;29070;48.102;-1.652;2023-04-02T02:50:46;12.60;;;2.95;;
39948;SDS011;29070;48.102;-1.652;2023-04-02T02:55:52;7.88;;;2.95;;
39948;SDS011;29070;48.102;-1.652;2023-04-02T03:00:58;7.70;;;2.45;;
39948;SDS011;29070;48.102;-1.652;2023-04-02T03:05:59;10.45;;;2.80;;
39948;SDS011;29070;48.102;-1.652;2023-04-02T03:21:30;7.53;;;1.92;;
39948;SDS011;29070;48.102;-1.652;2023-04-02T03:26:34;6.38;;;2.22;;
39948;SDS011;29070;48.102;-1.652;2023-04-02T03:31:37;8.82;;;2.20;;
39948;SDS011;29070;48.102;-1.652;2023-04-02T03:36:47;14.07;;;2.53;;
39948;SDS011;29070;48.102;-1.652;2023-04-02T03:41:57;7.13;;;1.80;;
39948;SDS011;29070;48.102;-1.652;2023-04-02T03:47:04;9.20;;;1.83;;
39948;SDS011;29070;48.102;-1.652;2023-04-02T03:52:16;11.48;;;1.80;;
39948;SDS011;29070;48.102;-1.652;2023-04-02T03:57:35;10.95;;;1.98;;
39948;SDS011;29070;48.102;-1.652;2023-04-02T04:07:52;9.70;;;1.90;;
39948;SDS011;29070;48.102;-1.652;2023-04-02T04:13:03;10.43;;;1.83;;
39948;SDS011;29070;48.102;-1.652;2023-04-02T04:18:11;9.50;;;2.20;;
39948;SDS011;29070;48.102;-1.652;2023-04-02T04:33:57;15.32;;;2.08;;
39948;SDS011;29070;48.102;-1.652;2023-04-02T04:39:05;10.60;;;2.20;;
39948;SDS011;29070;48.102;-1.652;2023-04-02T04:49:21;9.23;;;2.30;;
39948;SDS011;29070;48.102;-1.652;2023-04-02T04:54:30;12.57;;;1.67;;
39948;SDS011;29070;48.102;-1.652;2023-04-02T04:59:43;11.53;;;2.30;;
39948;SDS011;29070;48.102;-1.652;2023-04-02T05:04:51;13.82;;;2.58;;
39948;SDS011;29070;48.102;-1.652;2023-04-02T05:15:22;7.78;;;2.03;;
39948;SDS011;29070;48.102;-1.652;2023-04-02T05:25:53;7.25;;;2.55;;
39948;SDS011;29070;48.102;-1.652;2023-04-02T05:31:04;10.23;;;2.33;;
39948;SDS011;29070;48.102;-1.652;2023-04-02T05:36:08;8.25;;;2.17;;
39948;SDS011;29070;48.102;-1.652;2023-04-02T05:41:19;7.50;;;2.40;;
39948;SDS011;29070;48.102;-1.652;2023-04-02T05:46:23;13.63;;;3.40;;
39948;SDS011;29070;48.102;-1.652;2023-04-02T05:51:34;10.13;;;2.28;;
39948;SDS011;29070;48.102;-1.652;2023-04-02T05:56:41;9.82;;;2.20;;
39948;SDS011;29070;48.102;-1.652;2023-04-02T06:01:50;6.72;;;1.60;;
39948;SDS011;29070;48.102;-1.652;2023-04-02T06:07:08;8.13;;;1.92;;
39948;SDS011;29070;48.102;-1.652;2023-04-02T06:17:23;6.38;;;1.70;;
39948;SDS011;29070;48.102;-1.652;2023-04-02T06:22:37;4.85;;;1.85;;
39948;SDS011;29070;48.102;-1.652;2023-04-02T06:27:40;4.60;;;1.38;;
39948;SDS011;29070;48.102;-1.652;2023-04-02T06:32:43;4.78;;;1.55;;
39948;SDS011;29070;48.102;-1.652;2023-04-02T06:37:44;3.77;;;1.30;;
39948;SDS011;29070;48.102;-1.652;2023-04-02T06:42:46;2.33;;;1.23;;
39948;SDS011;29070;48.102;-1.652;2023-04-02T06:47:51;2.88;;;1.20;;
39948;SDS011;29070;48.102;-1.652;2023-04-02T06:52:57;6.72;;;1.30;;
39948;SDS011;29070;48.102;-1.652;2023-04-02T06:58:04;3.60;;;1.85;;
39948;SDS011;29070;48.102;-1.652;2023-04-02T07:03:05;4.22;;;1.30;;
39948;SDS011;29070;48.102;-1.652;2023-04-02T07:08:19;5.00;;;1.60;;
39948;SDS011;29070;48.102;-1.652;2023-04-02T07:13:21;3.05;;;1.38;;
39948;SDS011;29070;48.102;-1.652;2023-04-02T07:18:29;2.88;;;1.33;;
39948;SDS011;29070;48.102;-1.652;2023-04-02T07:23:31;6.00;;;1.50;;
39948;SDS011;29070;48.102;-1.652;2023-04-02T07:28:31;5.87;;;2.57;;
39948;SDS011;29070;48.102;-1.652;2023-04-02T07:33:31;3.38;;;1.75;;
39948;SDS011;29070;48.102;-1.652;2023-04-02T07:38:32;5.47;;;2.40;;
39948;SDS011;29070;48.102;-1.652;2023-04-02T07:43:32;7.57;;;1.37;;
39948;SDS011;29070;48.102;-1.652;2023-04-02T07:48:32;4.22;;;1.38;;
39948;SDS011;29070;48.102;-1.652;2023-04-02T07:53:34;5.72;;;1.60;;
39948;SDS011;29070;48.102;-1.652;2023-04-02T07:58:37;1.95;;;1.45;;
39948;SDS011;29070;48.102;-1.652;2023-04-02T08:03:37;4.97;;;2.13;;
39948;SDS011;29070;48.102;-1.652;2023-04-02T08:08:38;4.33;;;1.67;;
39948;SDS011;29070;48.102;-1.652;2023-04-02T08:13:38;10.18;;;2.20;;
39948;SDS011;29070;48.102;-1.652;2023-04-02T08:18:39;3.72;;;1.75;;
39948;SDS011;29070;48.102;-1.652;2023-04-02T08:23:40;6.60;;;1.50;;
39948;SDS011;29070;48.102;-1.652;2023-04-02T08:28:41;4.65;;;1.65;;
39948;SDS011;29070;48.102;-1.652;2023-04-02T08:33:42;5.87;;;1.60;;
39948;SDS011;29070;48.102;-1.652;2023-04-02T08:38:42;5.30;;;0.97;;
39948;SDS011;29070;48.102;-1.652;2023-04-02T08:48:53;5.50;;;1.50;;
39948;SDS011;29070;48.102;-1.652;2023-04-02T08:54:39;5.75;;;2.03;;
39948;SDS011;29070;48.102;-1.652;2023-04-02T09:04:32;3.03;;;1.23;;
39948;SDS011;29070;48.102;-1.652;2023-04-02T09:09:33;3.97;;;1.45;;
39948;SDS011;29070;48.102;-1.652;2023-04-02T09:25:03;3.53;;;1.40;;
39948;SDS011;29070;48.102;-1.652;2023-04-02T09:30:28;6.78;;;1.10;;
39948;SDS011;29070;48.102;-1.652;2023-04-02T09:35:36;2.58;;;1.25;;
39948;SDS011;29070;48.102;-1.652;2023-04-02T09:46:12;2.63;;;1.30;;
39948;SDS011;29070;48.102;-1.652;2023-04-02T09:51:20;5.93;;;1.60;;
39948;SDS011;29070;48.102;-1.652;2023-04-02T09:56:22;4.43;;;1.20;;
39948;SDS011;29070;48.102;-1.652;2023-04-02T10:01:27;2.42;;;1.10;;
39948;SDS011;29070;48.102;-1.652;2023-04-02T10:06:30;3.55;;;1.13;;
39948;SDS011;29070;48.102;-1.652;2023-04-02T10:11:33;4.47;;;1.00;;
39948;SDS011;29070;48.102;-1.652;2023-04-02T10:16:39;12.30;;;3.95;;
39948;SDS011;29070;48.102;-1.652;2023-04-02T10:21:42;8.75;;;1.77;;
39948;SDS011;29070;48.102;-1.652;2023-04-02T10:37:18;7.03;;;3.30;;
39948;SDS011;29070;48.102;-1.652;2023-04-02T10:47:45;6.05;;;1.90;;
39948;SDS011;29070;48.102;-1.652;2023-04-02T10:58:17;11.13;;;2.05;;
39948;SDS011;29070;48.102;-1.652;2023-04-02T11:03:28;5.50;;;1.13;;
39948;SDS011;29070;48.102;-1.652;2023-04-02T11:08:40;5.45;;;1.08;;
39948;SDS011;29070;48.102;-1.652;2023-04-02T11:18:59;4.63;;;1.27;;
39948;SDS011;29070;48.102;-1.652;2023-04-02T11:29:31;3.03;;;1.10;;
39948;SDS011;29070;48.102;-1.652;2023-04-02T11:39:45;2.85;;;1.10;;
39948;SDS011;29070;48.102;-1.652;2023-04-02T11:44:53;5.72;;;1.50;;
39948;SDS011;29070;48.102;-1.652;2023-04-02T12:00:32;3.17;;;1.58;;
39948;SDS011;29070;48.102;-1.652;2023-04-02T12:06:07;5.40;;;2.00;;
39948;SDS011;29070;48.102;-1.652;2023-04-02T12:11:18;5.97;;;1.88;;
39948;SDS011;29070;48.102;-1.652;2023-04-02T12:16:32;4.57;;;2.03;;
39948;SDS011;29070;48.102;-1.652;2023-04-02T12:21:33;1.58;;;0.80;;
39948;SDS011;29070;48.102;-1.652;2023-04-02T12:26:34;2.17;;;1.10;;
39948;SDS011;29070;48.102;-1.652;2023-04-02T12:31:36;2.58;;;0.90;;
39948;SDS011;29070;48.102;-1.652;2023-04-02T12:36:52;1.42;;;0.80;;
39948;SDS011;29070;48.102;-1.652;2023-04-02T12:41:55;2.35;;;1.60;;
39948;SDS011;29070;48.102;-1.652;2023-04-02T12:46:56;5.25;;;1.70;;
39948;SDS011;29070;48.102;-1.652;2023-04-02T12:51:57;5.07;;;1.50;;
39948;SDS011;29070;48.102;-1.652;2023-04-02T12:57:44;2.72;;;1.25;;
39948;SDS011;29070;48.102;-1.652;2023-04-02T13:02:26;3.28;;;1.67;;
39948;SDS011;29070;48.102;-1.652;2023-04-02T13:07:29;3.25;;;1.77;;
39948;SDS011;29070;48.102;-1.652;2023-04-02T13:12:32;2.28;;;1.15;;
39948;SDS011;29070;48.102;-1.652;2023-04-02T13:22:44;2.83;;;1.20;;
39948;SDS011;29070;48.102;-1.652;2023-04-02T13:27:44;2.80;;;0.90;;
39948;SDS011;29070;48.102;-1.652;2023-04-02T13:32:45;3.80;;;1.00;;
39948;SDS011;29070;48.102;-1.652;2023-04-02T13:37:45;1.73;;;1.20;;
39948;SDS011;29070;48.102;-1.652;2023-04-02T13:42:47;2.33;;;1.00;;
39948;SDS011;29070;48.102;-1.652;2023-04-02T13:47:48;3.55;;;1.10;;
39948;SDS011;29070;48.102;-1.652;2023-04-02T13:52:49;3.13;;;1.52;;
39948;SDS011;29070;48.102;-1.652;2023-04-02T13:57:50;3.55;;;1.48;;
39948;SDS011;29070;48.102;-1.652;2023-04-02T14:02:53;4.53;;;1.80;;
39948;SDS011;29070;48.102;-1.652;2023-04-02T14:08:04;3.55;;;1.15;;
39948;SDS011;29070;48.102;-1.652;2023-04-02T14:13:15;2.83;;;1.20;;
39948;SDS011;29070;48.102;-1.652;2023-04-02T14:24:21;1.75;;;0.95;;
39948;SDS011;29070;48.102;-1.652;2023-04-02T14:29:30;4.18;;;1.08;;
39948;SDS011;29070;48.102;-1.652;2023-04-02T14:44:51;5.32;;;1.45;;
39948;SDS011;29070;48.102;-1.652;2023-04-02T14:50:18;2.47;;;1.30;;
39948;SDS011;29070;48.102;-1.652;2023-04-02T14:55:31;3.47;;;1.33;;
39948;SDS011;29070;48.102;-1.652;2023-04-02T15:00:44;5.28;;;1.45;;
39948;SDS011;29070;48.102;-1.652;2023-04-02T15:06:05;2.95;;;1.35;;
39948;SDS011;29070;48.102;-1.652;2023-04-02T15:11:16;2.45;;;1.20;;
39948;SDS011;29070;48.102;-1.652;2023-04-02T15:16:23;4.03;;;1.10;;
39948;SDS011;29070;48.102;-1.652;2023-04-02T15:21:36;5.20;;;3.03;;
39948;SDS011;29070;48.102;-1.652;2023-04-02T15:32:05;2.58;;;1.38;;
39948;SDS011;29070;48.102;-1.652;2023-04-02T15:42:43;4.43;;;1.10;;
39948;SDS011;29070;48.102;-1.652;2023-04-02T15:53:27;5.05;;;1.38;;
39948;SDS011;29070;48.102;-1.652;2023-04-02T15:58:43;4.88;;;2.03;;
39948;SDS011;29070;48.102;-1.652;2023-04-02T16:14:47;6.18;;;2.63;;
39948;SDS011;29070;48.102;-1.652;2023-04-02T16:19:49;3.97;;;2.10;;
39948;SDS011;29070;48.102;-1.652;2023-04-02T16:24:59;5.53;;;2.30;;
39948;SDS011;29070;48.102;-1.652;2023-04-02T16:51:17;4.40;;;2.30;;
39948;SDS011;29070;48.102;-1.652;2023-04-02T17:02:21;4.20;;;1.90;;
39948;SDS011;29070;48.102;-1.652;2023-04-02T17:07:34;6.05;;;2.10;;
39948;SDS011;29070;48.102;-1.652;2023-04-02T17:12:43;5.40;;;1.70;;
39948;SDS011;29070;48.102;-1.652;2023-04-02T17:17:46;3.25;;;1.38;;
39948;SDS011;29070;48.102;-1.652;2023-04-02T17:22:46;3.23;;;1.80;;
39948;SDS011;29070;48.102;-1.652;2023-04-02T17:27:47;3.50;;;1.45;;
39948;SDS011;29070;48.102;-1.652;2023-04-02T17:32:51;3.25;;;1.58;;
39948;SDS011;29070;48.102;-1.652;2023-04-02T17:37:57;2.90;;;1.70;;
39948;SDS011;29070;48.102;-1.652;2023-04-02T18:04:05;1.42;;;1.02;;
39948;SDS011;29070;48.102;-1.652;2023-04-02T18:09:24;2.72;;;1.48;;
39948;SDS011;29070;48.102;-1.652;2023-04-02T18:20:10;5.25;;;1.73;;
39948;SDS011;29070;48.102;-1.652;2023-04-02T18:25:22;4.88;;;1.50;;
39948;SDS011;29070;48.102;-1.652;2023-04-02T18:30:31;5.22;;;1.70;;
39948;SDS011;29070;48.102;-1.652;2023-04-02T18:35:37;6.20;;;1.85;;
39948;SDS011;29070;48.102;-1.652;2023-04-02T18:51:35;6.90;;;1.70;;
39948;SDS011;29070;48.102;-1.652;2023-04-02T18:56:38;6.13;;;2.42;;
39948;SDS011;29070;48.102;-1.652;2023-04-02T19:01:40;4.32;;;1.67;;
39948;SDS011;29070;48.102;-1.652;2023-04-02T19:06:48;3.80;;;1.60;;
39948;SDS011;29070;48.102;-1.652;2023-04-02T19:11:53;7.93;;;1.95;;
39948;SDS011;29070;48.102;-1.652;2023-04-02T19:22:21;4.93;;;1.40;;
39948;SDS011;29070;48.102;-1.652;2023-04-02T19:32:53;9.13;;;1.60;;
39948;SDS011;29070;48.102;-1.652;2023-04-02T19:48:46;4.88;;;1.90;;
39948;SDS011;29070;48.102;-1.652;2023-04-02T19:53:52;2.33;;;1.40;;
39948;SDS011;29070;48.102;-1.652;2023-04-02T19:58:53;2.30;;;1.70;;
39948;SDS011;29070;48.102;-1.652;2023-04-02T20:03:53;5.40;;;1.63;;
39948;SDS011;29070;48.102;-1.652;2023-04-02T20:08:53;5.47;;;1.40;;
39948;SDS011;29070;48.102;-1.652;2023-04-02T20:13:54;2.93;;;1.50;;
39948;SDS011;29070;48.102;-1.652;2023-04-02T20:18:55;6.35;;;2.53;;
39948;SDS011;29070;48.102;-1.652;2023-04-02T20:23:55;5.43;;;1.30;;
39948;SDS011;29070;48.102;-1.652;2023-04-02T20:28:56;5.70;;;1.47;;
39948;SDS011;29070;48.102;-1.652;2023-04-02T20:33:56;4.70;;;1.50;;
39948;SDS011;29070;48.102;-1.652;2023-04-02T20:38:57;3.97;;;1.42;;
39948;SDS011;29070;48.102;-1.652;2023-04-02T20:43:58;2.03;;;1.30;;
39948;SDS011;29070;48.102;-1.652;2023-04-02T20:48:58;4.50;;;1.60;;
39948;SDS011;29070;48.102;-1.652;2023-04-02T20:53:59;6.32;;;1.90;;
39948;SDS011;29070;48.102;-1.652;2023-04-02T20:58:59;5.20;;;2.05;;
39948;SDS011;29070;48.102;-1.652;2023-04-02T21:04:00;4.07;;;1.77;;
39948;SDS011;29070;48.102;-1.652;2023-04-02T21:09:03;9.77;;;2.40;;
39948;SDS011;29070;48.102;-1.652;2023-04-02T21:14:05;3.53;;;1.50;;
39948;SDS011;29070;48.102;-1.652;2023-04-02T21:19:06;5.70;;;1.93;;
39948;SDS011;29070;48.102;-1.652;2023-04-02T21:24:08;4.03;;;1.65;;
39948;SDS011;29070;48.102;-1.652;2023-04-02T21:29:09;6.78;;;1.75;;
39948;SDS011;29070;48.102;-1.652;2023-04-02T21:34:14;5.90;;;2.28;;
39948;SDS011;29070;48.102;-1.652;2023-04-02T21:39:17;6.75;;;1.95;;
39948;SDS011;29070;48.102;-1.652;2023-04-02T21:44:22;7.40;;;2.47;;
39948;SDS011;29070;48.102;-1.652;2023-04-02T21:49:23;7.95;;;3.28;;
39948;SDS011;29070;48.102;-1.652;2023-04-02T21:54:25;10.32;;;2.47;;
39948;SDS011;29070;48.102;-1.652;2023-04-02T21:59:25;4.85;;;2.15;;
39948;SDS011;29070;48.102;-1.652;2023-04-02T22:04:26;5.03;;;2.63;;
39948;SDS011;29070;48.102;-1.652;2023-04-02T22:09:28;10.23;;;2.92;;
39948;SDS011;29070;48.102;-1.652;2023-04-02T22:14:28;5.00;;;2.40;;
39948;SDS011;29070;48.102;-1.652;2023-04-02T22:19:29;8.35;;;2.38;;
39948;SDS011;29070;48.102;-1.652;2023-04-02T22:24:29;5.37;;;2.00;;
39948;SDS011;29070;48.102;-1.652;2023-04-02T22:29:30;8.13;;;2.53;;
39948;SDS011;29070;48.102;-1.652;2023-04-02T22:34:30;10.17;;;2.23;;
39948;SDS011;29070;48.102;-1.652;2023-04-02T22:39:30;9.97;;;2.90;;
39948;SDS011;29070;48.102;-1.652;2023-04-02T22:44:31;5.33;;;2.17;;
39948;SDS011;29070;48.102;-1.652;2023-04-02T22:49:31;6.07;;;2.10;;
39948;SDS011;29070;48.102;-1.652;2023-04-02T22:54:31;9.43;;;2.73;;
39948;SDS011;29070;48.102;-1.652;2023-04-02T22:59:32;7.73;;;2.10;;
39948;SDS011;29070;48.102;-1.652;2023-04-02T23:04:32;8.97;;;2.37;;
39948;SDS011;29070;48.102;-1.652;2023-04-02T23:09:32;9.77;;;2.27;;
39948;SDS011;29070;48.102;-1.652;2023-04-02T23:14:33;7.60;;;2.67;;
39948;SDS011;29070;48.102;-1.652;2023-04-02T23:19:33;8.98;;;2.63;;
39948;SDS011;29070;48.102;-1.652;2023-04-02T23:24:34;7.67;;;2.37;;
39948;SDS011;29070;48.102;-1.652;2023-04-02T23:29:34;10.70;;;2.88;;
39948;SDS011;29070;48.102;-1.652;2023-04-02T23:34:35;9.25;;;2.55;;
39948;SDS011;29070;48.102;-1.652;2023-04-02T23:39:35;6.23;;;2.10;;
39948;SDS011;29070;48.102;-1.652;2023-04-02T23:44:36;6.35;;;2.20;;
39948;SDS011;29070;48.102;-1.652;2023-04-02T23:49:37;5.65;;;2.25;;
39948;SDS011;29070;48.102;-1.652;2023-04-02T23:54:37;9.03;;;2.13;;
39948;SDS011;29070;48.102;-1.652;2023-04-02T23:59:37;10.40;;;2.07;;
